createdAt,value
2022-09-23T00:03:07.097Z,5.85
2022-09-23T00:08:11.682Z,6.15
2022-09-23T00:13:13.290Z,6.32
2022-09-23T00:18:15.001Z,5.82
2022-09-23T00:23:16.623Z,6.47
2022-09-23T00:28:18.228Z,5.32
2022-09-23T00:33:19.902Z,5.40
2022-09-23T00:38:21.503Z,5.68
2022-09-23T00:43:47.027Z,5.78
2022-09-23T00:48:53.286Z,6.50
2022-09-23T00:53:55.678Z,5.60
2022-09-23T00:58:57.393Z,5.50
2022-09-23T01:03:59.253Z,5.13
2022-09-23T01:09:00.865Z,6.18
2022-09-23T01:14:18.034Z,6.22
2022-09-23T01:19:50.789Z,6.13
2022-09-23T01:25:21.295Z,6.28
2022-09-23T01:31:05.051Z,6.43
2022-09-23T01:36:35.472Z,5.90
2022-09-23T01:41:58.600Z,6.70
2022-09-23T01:47:11.068Z,6.82
2022-09-23T01:52:25.852Z,6.78
2022-09-23T01:57:33.471Z,6.55
2022-09-23T02:02:49.373Z,6.50
2022-09-23T02:08:23.701Z,6.55
2022-09-23T02:13:40.178Z,6.22
2022-09-23T02:18:55.983Z,6.03
2022-09-23T02:24:09.134Z,5.78
2022-09-23T02:29:37.700Z,5.93
2022-09-23T02:34:51.487Z,6.18
2022-09-23T02:40:09.766Z,5.68
2022-09-23T02:45:11.564Z,5.85
2022-09-23T02:50:13.889Z,6.13
2022-09-23T02:55:22.274Z,6.05
2022-09-23T03:00:24.059Z,5.75
2022-09-23T03:05:30.356Z,6.10
2022-09-23T03:10:50.430Z,5.80
2022-09-23T03:16:07.517Z,6.25
2022-09-23T03:21:16.228Z,5.93
2022-09-23T03:26:27.543Z,6.00
2022-09-23T03:31:30.197Z,5.57
2022-09-23T03:36:51.668Z,5.63
2022-09-23T03:41:57.248Z,6.00
2022-09-23T03:47:02.426Z,6.00
2022-09-23T03:52:04.055Z,5.30
2022-09-23T03:57:05.725Z,5.97
2022-09-23T04:02:07.914Z,5.28
2022-09-23T04:07:10.924Z,5.45
2022-09-23T04:12:15.393Z,5.97
2022-09-23T04:17:17.031Z,5.28
2022-09-23T04:22:18.699Z,5.85
2022-09-23T04:27:20.393Z,6.10
2022-09-23T04:32:21.994Z,5.75
2022-09-23T04:37:23.665Z,5.00
2022-09-23T04:42:28.855Z,6.13
2022-09-23T04:47:32.412Z,6.50
2022-09-23T04:52:34.033Z,5.43
2022-09-23T04:57:35.722Z,5.05
2022-09-23T05:02:43.453Z,5.55
2022-09-23T05:07:45.053Z,5.55
2022-09-23T05:12:46.687Z,5.18
2022-09-23T05:17:48.301Z,5.75
2022-09-23T05:22:49.921Z,5.28
2022-09-23T05:27:51.960Z,6.45
2022-09-23T05:32:54.202Z,7.00
2022-09-23T05:37:55.826Z,6.38
2022-09-23T05:42:57.869Z,7.47
2022-09-23T05:47:59.493Z,6.60
2022-09-23T05:53:01.133Z,7.10
2022-09-23T05:58:02.741Z,6.78
2022-09-23T06:03:04.576Z,6.55
2022-09-23T06:08:07.387Z,7.72
2022-09-23T06:13:09.872Z,8.73
2022-09-23T06:18:12.540Z,6.82
2022-09-23T06:23:14.144Z,7.70
2022-09-23T06:28:15.728Z,8.45
2022-09-23T06:33:23.242Z,8.95
2022-09-23T06:38:34.293Z,8.52
2022-09-23T06:43:35.940Z,8.57
2022-09-23T06:48:37.553Z,7.60
2022-09-23T06:53:39.485Z,8.52
2022-09-23T06:58:41.457Z,8.27
2022-09-23T07:03:45.235Z,10.13
2022-09-23T07:08:48.242Z,10.98
2022-09-23T07:13:49.900Z,10.43
2022-09-23T07:18:53.524Z,8.50
2022-09-23T07:23:58.174Z,5.82
2022-09-23T07:29:07.528Z,5.70
2022-09-23T07:34:11.461Z,5.07
2022-09-23T07:39:13.722Z,6.25
2022-09-23T07:44:16.337Z,5.00
2022-09-23T07:49:17.946Z,4.90
2022-09-23T07:54:20.060Z,4.20
2022-09-23T07:59:21.906Z,4.78
2022-09-23T08:04:26.815Z,4.80
2022-09-23T08:09:34.818Z,3.83
2022-09-23T08:14:36.644Z,3.42
2022-09-23T08:19:39.188Z,3.90
2022-09-23T08:24:41.098Z,3.40
2022-09-23T08:29:42.717Z,4.10
2022-09-23T08:34:46.734Z,3.85
2022-09-23T08:39:48.333Z,3.22
2022-09-23T08:44:54.993Z,3.10
2022-09-23T08:50:07.370Z,2.55
2022-09-23T08:55:13.776Z,2.03
2022-09-23T09:00:20.878Z,2.63
2022-09-23T09:05:28.906Z,2.38
2022-09-23T09:10:47.036Z,2.70
2022-09-23T09:16:06.439Z,2.58
2022-09-23T09:21:12.648Z,2.78
2022-09-23T09:26:21.853Z,2.45
2022-09-23T09:31:30.988Z,2.85
2022-09-23T09:36:44.408Z,2.53
2022-09-23T09:41:50.041Z,2.38
2022-09-23T09:47:28.834Z,2.75
2022-09-23T09:52:31.786Z,2.90
2022-09-23T09:57:39.780Z,3.08
2022-09-23T10:02:41.995Z,2.35
2022-09-23T10:07:43.900Z,2.50
2022-09-23T10:12:47.299Z,1.95
2022-09-23T10:17:51.326Z,2.17
2022-09-23T10:22:53.202Z,2.85
2022-09-23T10:27:54.856Z,2.58
2022-09-23T10:32:57.072Z,1.95
2022-09-23T10:38:01.580Z,2.50
2022-09-23T10:43:37.904Z,1.65
2022-09-23T10:49:10.071Z,1.60
2022-09-23T10:54:36.370Z,1.70
2022-09-23T11:00:06.017Z,1.90
2022-09-23T11:06:01.204Z,1.60
2022-09-23T11:11:31.016Z,1.63
2022-09-23T11:16:46.568Z,1.40
2022-09-23T11:22:01.298Z,1.45
2022-09-23T11:27:11.646Z,1.70
2022-09-23T11:32:27.636Z,1.08
2022-09-23T11:37:46.457Z,1.45
2022-09-23T11:42:58.222Z,1.42
2022-09-23T11:48:09.814Z,2.05
2022-09-23T11:53:30.014Z,2.08
2022-09-23T11:58:37.915Z,1.77
2022-09-23T12:03:55.685Z,1.65
2022-09-23T12:09:03.914Z,1.90
2022-09-23T12:14:25.919Z,1.58
2022-09-23T12:19:45.498Z,1.55
2022-09-23T12:25:10.418Z,1.58
2022-09-23T12:30:25.351Z,1.42
2022-09-23T12:35:40.089Z,1.60
2022-09-23T12:40:43.646Z,2.03
2022-09-23T12:45:45.564Z,1.65
2022-09-23T12:51:03.774Z,1.42
2022-09-23T12:56:23.739Z,1.70
2022-09-23T13:01:26.827Z,1.20
2022-09-23T13:06:39.192Z,1.35
2022-09-23T13:11:45.342Z,1.98
2022-09-23T13:16:48.409Z,1.75
2022-09-23T13:21:51.400Z,1.67
2022-09-23T13:26:55.664Z,1.60
2022-09-23T13:31:58.122Z,1.50
2022-09-23T13:37:22.808Z,1.98
2022-09-23T13:42:28.662Z,1.33
2022-09-23T13:47:31.321Z,1.40
2022-09-23T13:52:33.169Z,1.85
2022-09-23T13:57:35.082Z,1.63
2022-09-23T14:02:43.135Z,1.80
2022-09-23T14:07:45.089Z,1.52
2022-09-23T14:12:48.897Z,1.90
2022-09-23T14:17:54.582Z,1.75
2022-09-23T14:23:09.631Z,1.45
2022-09-23T14:28:21.091Z,1.88
2022-09-23T14:33:33.318Z,1.75
2022-09-23T14:38:50.812Z,1.48
2022-09-23T14:43:58.702Z,1.15
2022-09-23T14:49:12.260Z,1.67
2022-09-23T14:54:44.057Z,1.55
2022-09-23T15:00:09.386Z,1.90
2022-09-23T15:05:23.252Z,1.65
2022-09-23T15:10:31.895Z,2.08
2022-09-23T15:15:33.888Z,2.15
2022-09-23T15:20:36.143Z,1.83
2022-09-23T15:25:41.226Z,2.00
2022-09-23T15:30:42.906Z,2.10
2022-09-23T15:35:48.919Z,1.65
2022-09-23T15:40:50.691Z,2.20
2022-09-23T15:45:57.234Z,2.08
2022-09-23T15:51:04.018Z,2.53
2022-09-23T15:56:06.292Z,2.20
2022-09-23T16:01:15.687Z,3.05
2022-09-23T16:06:17.334Z,2.78
2022-09-23T16:11:23.577Z,3.45
2022-09-23T16:16:27.817Z,2.50
2022-09-23T16:21:29.606Z,3.70
2022-09-23T16:26:35.580Z,4.07
2022-09-23T16:31:38.752Z,3.97
2022-09-23T16:36:43.127Z,4.78
2022-09-23T16:41:44.766Z,5.05
2022-09-23T16:46:46.395Z,5.28
2022-09-23T16:51:48.190Z,4.53
2022-09-23T16:56:50.506Z,4.63
2022-09-23T17:02:10.825Z,4.10
2022-09-23T17:07:12.706Z,4.47
2022-09-23T17:12:32.355Z,4.70
2022-09-23T17:17:37.548Z,5.28
2022-09-23T17:22:39.146Z,4.75
2022-09-23T17:27:40.880Z,4.88
2022-09-23T17:32:42.572Z,4.97
2022-09-23T17:37:44.166Z,4.70
2022-09-23T17:42:45.774Z,4.63
2022-09-23T17:47:51.286Z,4.97
2022-09-23T17:52:52.886Z,5.00
2022-09-23T17:57:54.494Z,4.78
2022-09-23T18:02:56.132Z,5.93
2022-09-23T18:07:57.745Z,5.18
2022-09-23T18:12:59.372Z,6.50
2022-09-23T18:18:00.994Z,6.57
2022-09-23T18:23:02.620Z,6.78
2022-09-23T18:28:04.283Z,7.43
2022-09-23T18:33:05.895Z,6.82
2022-09-23T18:38:07.767Z,7.78
2022-09-23T18:43:09.380Z,8.10
2022-09-23T18:48:29.655Z,8.73
2022-09-23T18:53:32.160Z,9.82
2022-09-23T18:58:33.847Z,8.10
2022-09-23T19:03:36.593Z,8.38
2022-09-23T19:08:38.638Z,10.30
2022-09-23T19:13:40.542Z,10.35
2022-09-23T19:18:44.406Z,12.02
2022-09-23T19:23:49.294Z,9.80
2022-09-23T19:28:53.388Z,9.98
2022-09-23T19:34:00.776Z,9.50
2022-09-23T19:39:08.534Z,9.07
2022-09-23T19:44:10.285Z,8.45
2022-09-23T19:49:12.169Z,8.52
2022-09-23T19:54:20.562Z,8.77
2022-09-23T19:59:22.437Z,8.10
2022-09-23T20:04:24.157Z,8.20
2022-09-23T20:09:29.014Z,9.02
2022-09-23T20:14:31.400Z,8.68
2022-09-23T20:19:33.061Z,9.65
2022-09-23T20:24:34.674Z,10.00
2022-09-23T20:29:37.419Z,12.85
2022-09-23T20:34:40.174Z,11.10
2022-09-23T20:39:41.785Z,11.68
2022-09-23T20:44:45.006Z,11.48
2022-09-23T20:49:46.654Z,11.95
2022-09-23T20:54:50.423Z,11.55
2022-09-23T20:59:52.034Z,10.40
2022-09-23T21:04:53.622Z,11.25
2022-09-23T21:09:55.208Z,12.82
2022-09-23T21:14:56.805Z,12.82
2022-09-23T21:20:01.429Z,11.68
2022-09-23T21:25:29.888Z,10.95
2022-09-23T21:30:25.637Z,12.35
2022-09-23T21:35:27.382Z,12.98
2022-09-23T21:40:47.492Z,14.40
2022-09-23T21:45:49.752Z,14.07
2022-09-23T21:50:56.767Z,14.88
2022-09-23T21:56:07.224Z,15.10
2022-09-23T22:01:15.571Z,14.82
2022-09-23T22:06:21.623Z,14.57
2022-09-23T22:11:43.112Z,16.45
2022-09-23T22:16:45.100Z,16.27
2022-09-23T22:21:47.140Z,15.68
2022-09-23T22:26:48.782Z,16.92
2022-09-23T22:32:08.955Z,18.15
2022-09-23T22:37:10.591Z,16.08
2022-09-23T22:42:16.150Z,15.88
2022-09-23T22:47:19.946Z,16.05
2022-09-23T22:52:24.569Z,15.65
2022-09-23T22:57:26.605Z,15.60
2022-09-23T23:02:28.291Z,15.52
2022-09-23T23:07:29.884Z,14.80
2022-09-23T23:12:33.498Z,15.32
2022-09-23T23:17:35.121Z,17.02
2022-09-23T23:22:36.717Z,15.48
2022-09-23T23:27:38.382Z,15.70
2022-09-23T23:32:39.995Z,15.90
2022-09-23T23:37:42.683Z,14.82
2022-09-23T23:42:44.345Z,15.85
2022-09-23T23:47:46.423Z,15.90
2022-09-23T23:52:48.073Z,17.60
2022-09-23T23:57:51.616Z,16.35
